Time;durP1;ratioP1;P1;durP2;ratioP2;P2;SDS_P1;SDS_P2;PMS_P1;PMS_P2;Temp;Humidity;BMP_temperature;BMP_pressure;BME280_temperature;BME280_humidity;BME280_pressure;Samples;Min_cycle;Max_cycle;Signal;HPM_P1;HPM_P2
2024/02/07 00:00:34;;;;;;;;;;;;;;;7.66;100.00;98892.56;108370;1253;61081;-73
2024/02/07 00:03:01;;;;;;;;;;;;;;;7.66;100.00;98889.22;108401;1254;75475;-72
2024/02/07 00:05:28;;;;;;;;;;;;;;;7.65;100.00;98879.88;108288;1254;71922;-71
2024/02/07 00:07:55;;;;;;;;;;;;;;;7.65;100.00;98880.52;108372;1251;73317;-70
2024/02/07 00:10:22;;;;;;;;;;;;;;;7.63;100.00;98874.94;108394;1253;61645;-71
2024/02/07 00:12:49;;;;;;;;;;;;;;;7.62;100.00;98873.41;108303;1251;60705;-73
2024/02/07 00:15:16;;;;;;;;;;;;;;;7.61;100.00;98874.86;108415;1253;74450;-72
2024/02/07 00:17:43;;;;;;;;;;;;;;;7.59;100.00;98866.21;108288;1251;73446;-72
2024/02/07 00:20:11;;;;;;;;;;;;;;;7.59;100.00;98867.27;108384;1251;72562;-71
2024/02/07 00:22:39;;;;;;;;;;;;;;;7.57;100.00;98872.34;108301;1251;61122;-71
2024/02/07 00:25:06;;;;;;;;;;;;;;;7.55;100.00;98876.83;108569;1251;59776;-72
2024/02/07 00:27:34;;;;;;;;;;;;;;;7.52;100.00;98869.98;108376;1251;73470;-70
2024/02/07 00:30:01;;;;;;;;;;;;;;;7.51;100.00;98874.52;108367;1251;72873;-71
2024/02/07 00:32:28;;;;;;;;;;;;;;;7.49;100.00;98865.38;108374;1252;72439;-72
2024/02/07 00:34:55;;;;;;;;;;;;;;;7.48;100.00;98858.54;108343;1253;61349;-75
2024/02/07 00:37:22;;;;;;;;;;;;;;;7.47;100.00;98860.58;108346;1253;61185;-70
2024/02/07 00:39:49;;;;;;;;;;;;;;;7.44;100.00;98851.20;108566;1251;72483;-74
2024/02/07 00:42:16;;;;;;;;;;;;;;;7.41;100.00;98855.94;108324;1251;72792;-71
2024/02/07 00:44:43;;;;;;;;;;;;;;;7.39;100.00;98853.88;108382;1253;71738;-72
2024/02/07 00:47:14;;;;;;;;;;;;;;;7.37;100.00;98850.92;108349;1251;62074;-72
2024/02/07 00:49:41;;;;;;;;;;;;;;;7.36;100.00;98851.35;108330;1251;61087;-71
2024/02/07 00:52:08;;;;;;;;;;;;;;;7.36;100.00;98850.98;108375;1253;75310;-71
2024/02/07 00:54:35;;;;;;;;;;;;;;;7.37;100.00;98841.58;108350;1254;72522;-71
2024/02/07 00:57:02;;;;;;;;;;;;;;;7.37;100.00;98841.84;108321;1255;72230;-72
2024/02/07 00:59:29;;;;;;;;;;;;;;;7.38;100.00;98836.26;108299;1253;61106;-71
2024/02/07 01:01:56;;;;;;;;;;;;;;;7.38;100.00;98832.27;108378;1253;61109;-72
2024/02/07 01:04:23;;;;;;;;;;;;;;;7.38;100.00;98830.95;108378;1254;74556;-71
2024/02/07 01:06:50;;;;;;;;;;;;;;;7.41;100.00;98837.04;108289;1253;72799;-71
2024/02/07 01:09:17;;;;;;;;;;;;;;;7.43;100.00;98829.46;108363;1251;72648;-73
2024/02/07 01:11:44;;;;;;;;;;;;;;;7.45;100.00;98827.23;108328;1251;61242;-73
2024/02/07 01:14:11;;;;;;;;;;;;;;;7.46;100.00;98821.80;108327;1252;61275;-72
2024/02/07 01:16:38;;;;;;;;;;;;;;;7.49;100.00;98821.23;108359;1252;74259;-71
2024/02/07 01:19:05;;;;;;;;;;;;;;;7.51;100.00;98817.88;108325;1254;71854;-74
2024/02/07 01:21:32;;;;;;;;;;;;;;;7.51;100.00;98811.55;108403;1253;72539;-73
2024/02/07 01:23:59;;;;;;;;;;;;;;;7.55;100.00;98807.73;108368;1252;61134;-70
2024/02/07 01:26:26;;;;;;;;;;;;;;;7.57;100.00;98810.12;108334;1253;61060;-70
2024/02/07 01:28:54;;;;;;;;;;;;;;;7.57;100.00;98800.66;108260;1254;74582;-72
2024/02/07 01:31:21;;;;;;;;;;;;;;;7.56;100.00;98803.10;108316;1254;71003;-71
2024/02/07 01:33:48;;;;;;;;;;;;;;;7.56;100.00;98795.08;108263;1253;71247;-71
2024/02/07 01:36:15;;;;;;;;;;;;;;;7.59;100.00;98795.85;108372;1254;61974;-72
2024/02/07 01:38:41;;;;;;;;;;;;;;;7.58;100.00;98787.63;108282;1252;61355;-71
2024/02/07 01:41:08;;;;;;;;;;;;;;;7.60;100.00;98790.91;108397;1253;74564;-72
2024/02/07 01:43:35;;;;;;;;;;;;;;;7.59;100.00;98780.76;108313;1253;72629;-72
2024/02/07 01:46:02;;;;;;;;;;;;;;;7.60;100.00;98778.48;108281;1254;71128;-72
2024/02/07 01:48:29;;;;;;;;;;;;;;;7.60;100.00;98771.77;108533;1254;61099;-72
2024/02/07 01:50:56;;;;;;;;;;;;;;;7.61;100.00;98779.81;108203;1252;61241;-72
2024/02/07 01:53:24;;;;;;;;;;;;;;;7.61;100.00;98778.15;108333;1253;73868;-71
2024/02/07 01:55:51;;;;;;;;;;;;;;;7.61;100.00;98780.53;108203;1253;71853;-72
2024/02/07 01:58:18;;;;;;;;;;;;;;;7.62;100.00;98781.58;108230;1254;71886;-71
2024/02/07 02:00:46;;;;;;;;;;;;;;;7.65;100.00;98779.44;108408;1253;62864;-71
2024/02/07 02:03:13;;;;;;;;;;;;;;;7.68;100.00;98775.67;108172;1253;61213;-71
2024/02/07 02:05:40;;;;;;;;;;;;;;;7.70;100.00;98771.14;108215;1253;73398;-71
2024/02/07 02:08:08;;;;;;;;;;;;;;;7.72;100.00;98766.50;108320;1253;72479;-71
2024/02/07 02:10:35;;;;;;;;;;;;;;;7.73;100.00;98764.84;108307;1252;71376;-72
2024/02/07 02:13:02;;;;;;;;;;;;;;;7.74;100.00;98765.52;108361;1253;61974;-72
2024/02/07 02:15:29;;;;;;;;;;;;;;;7.73;100.00;98771.44;108378;1253;59204;-71
2024/02/07 02:17:56;;;;;;;;;;;;;;;7.74;100.00;98770.74;108354;1253;74438;-72
2024/02/07 02:20:24;;;;;;;;;;;;;;;7.75;100.00;98767.96;108421;1254;73155;-71
2024/02/07 02:23:03;;;;;;;;;;;;;;;7.74;100.00;98764.41;108208;1253;71886;-72
2024/02/07 02:25:45;;;;;;;;;;;;;;;7.72;100.00;98761.17;108266;1252;61810;-71
2024/02/07 02:28:31;;;;;;;;;;;;;;;7.72;100.00;98756.30;108355;1253;61063;-73
2024/02/07 02:30:58;;;;;;;;;;;;;;;7.70;100.00;98753.23;108321;1254;73522;-72
2024/02/07 02:33:26;;;;;;;;;;;;;;;7.71;100.00;98748.02;108328;1252;72590;-73
2024/02/07 02:35:56;;;;;;;;;;;;;;;7.72;100.00;98748.42;108273;1253;71335;-72
2024/02/07 02:38:25;;;;;;;;;;;;;;;7.73;100.00;98749.05;108351;1254;61233;-74
2024/02/07 02:40:52;;;;;;;;;;;;;;;7.73;100.00;98748.21;108354;1254;61109;-72
2024/02/07 02:43:28;;;;;;;;;;;;;;;7.73;100.00;98747.83;108315;1253;74583;-70
2024/02/07 02:45:55;;;;;;;;;;;;;;;7.70;100.00;98741.34;108326;1254;71592;-71
2024/02/07 02:48:23;;;;;;;;;;;;;;;7.67;100.00;98743.33;108372;1252;73266;-70
2024/02/07 02:50:50;;;;;;;;;;;;;;;7.64;100.00;98744.36;108313;1253;61881;-72
2024/02/07 02:53:37;;;;;;;;;;;;;;;7.63;100.00;98745.02;108094;1256;61089;-73
2024/02/07 02:56:05;;;;;;;;;;;;;;;7.63;100.00;98739.91;107943;1257;73901;-73
2024/02/07 02:58:32;;;;;;;;;;;;;;;7.62;100.00;98732.12;108088;1256;71259;-72
2024/02/07 03:01:10;;;;;;;;;;;;;;;7.63;100.00;98731.73;108017;1259;73095;-72
2024/02/07 03:03:37;;;;;;;;;;;;;;;7.62;100.00;98735.23;107997;1256;61214;-72
2024/02/07 03:06:17;;;;;;;;;;;;;;;7.62;100.00;98728.44;108057;1256;59144;-72
2024/02/07 03:08:53;;;;;;;;;;;;;;;7.64;100.00;98732.46;108061;1255;72902;-73
2024/02/07 03:11:23;;;;;;;;;;;;;;;7.64;100.00;98724.23;108048;1255;72928;-71
2024/02/07 03:13:51;;;;;;;;;;;;;;;7.66;100.00;98720.27;108013;1257;71419;-72
2024/02/07 03:16:18;;;;;;;;;;;;;;;7.67;100.00;98721.16;108142;1257;62269;-70
2024/02/07 03:18:46;;;;;;;;;;;;;;;7.68;100.00;98712.12;108012;1256;61355;-71
2024/02/07 03:21:13;;;;;;;;;;;;;;;7.71;100.00;98714.73;108012;1255;76068;-70
2024/02/07 03:23:41;;;;;;;;;;;;;;;7.73;100.00;98714.56;108016;1256;73198;-71
2024/02/07 03:26:09;;;;;;;;;;;;;;;7.72;100.00;98706.91;108049;1257;72497;-71
2024/02/07 03:28:36;;;;;;;;;;;;;;;7.74;100.00;98704.52;108097;1257;61041;-72
2024/02/07 03:31:04;;;;;;;;;;;;;;;7.71;100.00;98703.38;108180;1252;61135;-72
2024/02/07 03:33:32;;;;;;;;;;;;;;;7.69;100.00;98696.64;108350;1251;73326;-71
2024/02/07 03:35:59;;;;;;;;;;;;;;;7.69;100.00;98692.39;108350;1253;72480;-73
2024/02/07 03:38:27;;;;;;;;;;;;;;;7.66;100.00;98687.11;108313;1252;73210;-72
2024/02/07 03:40:54;;;;;;;;;;;;;;;7.66;100.00;98681.59;108348;1252;61831;-73
2024/02/07 03:43:23;;;;;;;;;;;;;;;7.65;100.00;98668.78;108470;1254;60951;-72
2024/02/07 03:45:50;;;;;;;;;;;;;;;7.64;100.00;98671.63;108380;1252;73294;-72
2024/02/07 03:48:17;;;;;;;;;;;;;;;7.63;100.00;98675.34;108380;1254;71764;-71
2024/02/07 03:50:46;;;;;;;;;;;;;;;7.63;100.00;98675.50;108335;1254;71408;-70
2024/02/07 03:53:13;;;;;;;;;;;;;;;7.64;100.00;98673.27;108328;1251;61116;-73
2024/02/07 03:55:40;;;;;;;;;;;;;;;7.64;100.00;98665.30;108327;1252;61106;-71
2024/02/07 03:58:07;;;;;;;;;;;;;;;7.63;100.00;98665.56;108417;1252;73510;-73
2024/02/07 04:00:35;;;;;;;;;;;;;;;7.63;100.00;98664.02;108335;1252;72561;-73
2024/02/07 04:03:02;;;;;;;;;;;;;;;7.63;100.00;98662.64;108262;1255;70818;-71
2024/02/07 04:05:29;;;;;;;;;;;;;;;7.63;100.00;98665.77;108314;1254;60997;-74
2024/02/07 04:07:55;;;;;;;;;;;;;;;7.63;100.00;98662.48;108344;1251;61084;-73
2024/02/07 04:10:23;;;;;;;;;;;;;;;7.63;99.98;98654.36;108289;1254;74370;-71
2024/02/07 05:16:04;;;;;;;;;;;;;;;7.74;96.14;98589.02;108301;1251;61515;-75
2024/02/07 05:18:30;;;;;;;;;;;;;;;7.76;95.62;98588.45;108301;1254;75281;-73
2024/02/07 05:20:58;;;;;;;;;;;;;;;7.78;95.18;98591.02;108320;1254;72976;-72
2024/02/07 05:23:25;;;;;;;;;;;;;;;7.81;94.85;98590.35;108275;1254;72703;-72
2024/02/07 05:25:53;;;;;;;;;;;;;;;7.82;94.46;98589.87;108363;1253;60770;-72
2024/02/07 05:28:20;;;;;;;;;;;;;;;7.83;94.23;98592.51;108366;1255;59904;-70
2024/02/07 05:30:47;;;;;;;;;;;;;;;7.82;94.06;98590.34;108371;1254;74543;-75
2024/02/07 05:33:14;;;;;;;;;;;;;;;7.81;94.15;98588.23;108288;1254;72581;-73
2024/02/07 05:35:41;;;;;;;;;;;;;;;7.81;94.26;98589.14;108370;1251;72672;-72
2024/02/07 05:38:10;;;;;;;;;;;;;;;7.81;94.26;98594.67;108298;1251;61701;-70
2024/02/07 05:40:37;;;;;;;;;;;;;;;7.82;94.32;98592.52;108295;1254;61070;-72
2024/02/07 05:43:05;;;;;;;;;;;;;;;7.81;94.13;98593.02;108185;1254;73629;-73
2024/02/07 05:45:32;;;;;;;;;;;;;;;7.81;94.02;98583.08;108284;1254;71119;-73
2024/02/07 05:47:58;;;;;;;;;;;;;;;7.83;93.77;98587.25;108360;1256;71819;-72
2024/02/07 05:50:27;;;;;;;;;;;;;;;7.84;93.36;98586.34;108268;1254;62047;-71
2024/02/07 05:52:54;;;;;;;;;;;;;;;7.88;93.31;98584.68;108311;1254;61882;-72
2024/02/07 05:55:22;;;;;;;;;;;;;;;7.90;92.58;98581.63;108378;1252;73171;-70
2024/02/07 05:57:49;;;;;;;;;;;;;;;7.92;92.00;98585.26;108381;1254;72738;-70
2024/02/07 06:00:16;;;;;;;;;;;;;;;7.93;91.49;98575.41;108368;1251;71667;-70
2024/02/07 06:02:43;;;;;;;;;;;;;;;7.96;91.22;98578.34;108374;1253;61280;-72
2024/02/07 06:05:11;;;;;;;;;;;;;;;7.98;90.85;98573.85;108383;1254;60540;-71
2024/02/07 06:07:39;;;;;;;;;;;;;;;7.99;90.03;98571.76;108297;1254;74023;-73
2024/02/07 06:10:06;;;;;;;;;;;;;;;8.03;89.35;98562.41;108365;1254;71322;-71
2024/02/07 06:12:33;;;;;;;;;;;;;;;8.08;89.01;98571.52;108301;1252;72744;-71
2024/02/07 06:15:00;;;;;;;;;;;;;;;8.12;88.41;98565.50;108555;1253;61119;-72
2024/02/07 06:17:28;;;;;;;;;;;;;;;8.15;87.80;98565.23;108445;1253;61116;-74
2024/02/07 06:19:55;;;;;;;;;;;;;;;8.18;87.26;98562.59;108341;1253;75864;-72
2024/02/07 06:22:23;;;;;;;;;;;;;;;8.20;86.94;98556.17;108347;1253;71129;-70
2024/02/07 06:24:49;;;;;;;;;;;;;;;8.23;86.53;98562.61;108378;1251;72850;-72
2024/02/07 06:27:16;;;;;;;;;;;;;;;8.25;86.02;98558.77;108404;1252;61134;-71
2024/02/07 06:29:43;;;;;;;;;;;;;;;8.27;85.53;98556.55;108323;1252;61047;-71
2024/02/07 06:32:10;;;;;;;;;;;;;;;8.30;85.22;98552.26;108368;1253;74946;-70
2024/02/07 06:34:37;;;;;;;;;;;;;;;8.34;84.68;98552.77;108314;1254;73805;-69
2024/02/07 06:37:04;;;;;;;;;;;;;;;8.39;84.59;98558.66;108327;1253;72603;-72
2024/02/07 06:39:32;;;;;;;;;;;;;;;8.45;83.85;98553.75;108326;1253;62179;-72
2024/02/07 06:41:59;;;;;;;;;;;;;;;8.51;83.29;98553.27;108363;1251;61252;-72
2024/02/07 06:44:26;;;;;;;;;;;;;;;8.57;83.04;98554.18;108426;1254;74589;-72
2024/02/07 06:46:53;;;;;;;;;;;;;;;8.62;82.60;98546.01;108277;1254;72075;-70
2024/02/07 06:49:20;;;;;;;;;;;;;;;8.65;82.11;98546.81;108229;1251;71422;-72
2024/02/07 06:51:47;;;;;;;;;;;;;;;8.68;81.89;98550.68;108342;1253;61076;-72
2024/02/07 06:54:15;;;;;;;;;;;;;;;8.71;82.08;98547.39;108285;1251;61112;-72
2024/02/07 06:56:41;;;;;;;;;;;;;;;8.72;82.65;98549.39;108281;1251;74805;-72
2024/02/07 06:59:11;;;;;;;;;;;;;;;8.73;83.27;98541.39;108267;1253;72589;-71
2024/02/07 07:01:39;;;;;;;;;;;;;;;8.74;83.95;98544.40;108272;1251;74117;-70
2024/02/07 07:04:06;;;;;;;;;;;;;;;8.77;84.90;98547.45;108353;1251;61353;-74
2024/02/07 07:06:32;;;;;;;;;;;;;;;8.75;85.65;98544.59;108344;1251;61200;-73
2024/02/07 07:08:59;;;;;;;;;;;;;;;8.77;86.58;98546.08;108377;1255;74842;-70
2024/02/07 07:11:27;;;;;;;;;;;;;;;8.77;87.06;98542.88;108262;1254;72661;-72
2024/02/07 07:13:55;;;;;;;;;;;;;;;8.79;87.09;98546.13;108276;1255;72745;-73
2024/02/07 07:16:27;;;;;;;;;;;;;;;8.81;86.52;98541.89;108476;1255;62041;-71
2024/02/07 07:18:56;;;;;;;;;;;;;;;8.83;85.55;98545.09;108230;1252;61110;-71
2024/02/07 07:21:23;;;;;;;;;;;;;;;8.85;83.55;98546.17;108455;1251;74817;-70
2024/02/07 07:23:51;;;;;;;;;;;;;;;8.94;83.09;98543.55;108277;1251;72845;-71
2024/02/07 07:26:18;;;;;;;;;;;;;;;8.99;81.77;98545.65;108427;1251;71529;-71
2024/02/07 07:28:45;;;;;;;;;;;;;;;9.05;81.03;98537.45;108216;1253;61205;-71
2024/02/07 07:31:12;;;;;;;;;;;;;;;9.09;79.90;98535.98;108438;1251;61054;-72
2024/02/07 07:33:39;;;;;;;;;;;;;;;9.15;79.27;98537.88;108429;1254;74231;-72
2024/02/07 07:36:07;;;;;;;;;;;;;;;9.21;78.41;98531.33;108516;1251;71679;-71
2024/02/07 07:38:34;;;;;;;;;;;;;;;9.24;77.65;98531.73;108234;1251;72757;-72
2024/02/07 07:41:01;;;;;;;;;;;;;;;9.28;77.09;98537.79;108321;1251;61132;-72
2024/02/07 07:43:28;;;;;;;;;;;;;;;9.32;76.75;98529.56;108303;1256;61050;-72
2024/02/07 07:45:55;;;;;;;;;;;;;;;9.37;76.29;98530.40;108294;1253;73342;-71
2024/02/07 07:48:22;;;;;;;;;;;;;;;9.42;75.88;98534.27;108343;1251;74193;-72
2024/02/07 07:50:51;;;;;;;;;;;;;;;9.43;75.51;98531.55;108379;1252;72698;-71
2024/02/07 07:53:18;;;;;;;;;;;;;;;9.44;75.06;98529.30;108264;1253;61180;-72
2024/02/07 07:55:45;;;;;;;;;;;;;;;9.45;74.98;98525.46;108338;1253;61080;-72
2024/02/07 07:58:12;;;;;;;;;;;;;;;9.45;75.04;98527.05;108363;1254;74662;-69
2024/02/07 08:00:39;;;;;;;;;;;;;;;9.44;74.91;98520.71;108401;1254;71216;-72
2024/02/07 08:03:07;;;;;;;;;;;;;;;9.45;75.12;98521.52;108392;1254;72536;-72
2024/02/07 08:05:35;;;;;;;;;;;;;;;9.44;74.98;98505.59;108386;1253;61071;-73
2024/02/07 08:08:03;;;;;;;;;;;;;;;9.41;74.64;98513.01;108339;1254;61098;-71
2024/02/07 08:10:30;;;;;;;;;;;;;;;9.42;74.77;98511.83;108305;1253;75543;-70
2024/02/07 08:12:57;;;;;;;;;;;;;;;9.45;74.85;98511.06;108314;1254;72790;-71
2024/02/07 08:15:24;;;;;;;;;;;;;;;9.48;74.74;98505.92;108343;1254;71624;-68
2024/02/07 08:17:51;;;;;;;;;;;;;;;9.51;73.84;98509.21;108298;1251;61196;-70
2024/02/07 08:20:22;;;;;;;;;;;;;;;9.54;73.84;98504.94;108291;1254;60456;-71
2024/02/07 08:22:49;;;;;;;;;;;;;;;9.55;73.79;98500.82;108356;1251;72822;-70
2024/02/07 08:25:16;;;;;;;;;;;;;;;9.58;73.68;98504.91;108332;1254;72850;-72
2024/02/07 08:27:42;;;;;;;;;;;;;;;9.61;73.36;98496.86;108219;1253;72797;-70
2024/02/07 08:30:10;;;;;;;;;;;;;;;9.65;73.18;98499.59;108301;1254;61989;-71
2024/02/07 08:32:37;;;;;;;;;;;;;;;9.71;72.96;98500.04;108313;1252;61210;-73
2024/02/07 08:35:05;;;;;;;;;;;;;;;9.76;72.39;98489.95;108330;1254;74748;-72
2024/02/07 08:37:32;;;;;;;;;;;;;;;9.82;71.64;98493.23;108299;1254;72837;-69
2024/02/07 08:39:59;;;;;;;;;;;;;;;9.91;71.20;98492.08;108341;1251;72600;-70
2024/02/07 08:42:25;;;;;;;;;;;;;;;9.98;70.37;98489.77;108277;1251;61144;-69
2024/02/07 08:44:52;;;;;;;;;;;;;;;10.05;70.05;98490.98;108389;1253;61113;-72
2024/02/07 08:47:19;;;;;;;;;;;;;;;10.11;69.13;98493.71;108244;1255;74780;-71
2024/02/07 08:49:46;;;;;;;;;;;;;;;10.14;68.36;98494.77;108347;1254;72806;-72
2024/02/07 08:52:13;;;;;;;;;;;;;;;10.15;68.23;98485.77;108277;1253;73083;-69
2024/02/07 08:54:40;;;;;;;;;;;;;;;10.18;67.81;98483.30;108291;1256;61534;-74
2024/02/07 08:57:07;;;;;;;;;;;;;;;10.20;67.56;98479.95;108288;1254;61067;-72
2024/02/07 08:59:34;;;;;;;;;;;;;;;10.20;67.45;98489.93;108326;1254;74473;-70
2024/02/07 09:02:01;;;;;;;;;;;;;;;10.23;67.40;98476.63;108330;1252;72570;-71
2024/02/07 09:04:30;;;;;;;;;;;;;;;10.27;67.09;98462.73;108283;1253;72585;-70
2024/02/07 09:07:05;;;;;;;;;;;;;;;10.32;66.98;98452.25;108472;1253;60855;-71
2024/02/07 09:09:48;;;;;;;;;;;;;;;10.38;66.66;98451.68;108262;1251;60465;-70
2024/02/07 09:12:50;;;;;;;;;;;;;;;10.41;66.52;98449.35;108154;1252;76757;-74
2024/02/07 09:15:39;;;;;;;;;;;;;;;10.45;65.95;98443.52;108152;1256;72936;-71
2024/02/07 09:18:06;;;;;;;;;;;;;;;10.52;65.81;98427.01;108309;1256;72327;-71
2024/02/07 09:20:33;;;;;;;;;;;;;;;10.59;65.28;98434.41;108301;1252;61233;-72
2024/02/07 09:23:00;;;;;;;;;;;;;;;10.67;65.10;98427.52;108251;1253;61125;-74
2024/02/07 09:25:28;;;;;;;;;;;;;;;10.75;64.42;98422.91;108333;1254;74597;-71
2024/02/07 09:27:57;;;;;;;;;;;;;;;10.84;63.89;98423.90;108317;1251;72603;-70
2024/02/07 09:30:24;;;;;;;;;;;;;;;10.91;63.47;98434.91;108387;1251;70999;-72
2024/02/07 09:32:50;;;;;;;;;;;;;;;10.98;62.90;98428.89;108282;1254;61611;-71
2024/02/07 09:35:17;;;;;;;;;;;;;;;11.06;62.44;98432.41;108317;1255;61305;-71
2024/02/07 09:37:45;;;;;;;;;;;;;;;11.17;62.64;98426.95;108349;1254;75735;-70
2024/02/07 09:40:12;;;;;;;;;;;;;;;11.33;62.44;98430.13;108240;1254;72762;-71
2024/02/07 09:42:41;;;;;;;;;;;;;;;11.53;61.89;98423.44;108274;1255;72566;-71
2024/02/07 09:45:11;;;;;;;;;;;;;;;11.69;60.61;98430.95;108309;1253;60065;-71
2024/02/07 09:47:41;;;;;;;;;;;;;;;11.78;59.80;98417.89;108357;1251;61097;-70
2024/02/07 09:50:08;;;;;;;;;;;;;;;11.84;59.55;98413.34;108350;1254;75521;-70
2024/02/07 09:52:36;;;;;;;;;;;;;;;11.90;59.20;98408.71;108025;1254;256775;-69
2024/02/07 09:55:04;;;;;;;;;;;;;;;11.94;59.10;98401.52;108155;1254;72768;-71
2024/02/07 09:57:31;;;;;;;;;;;;;;;11.96;58.96;98403.63;108211;1253;61116;-72
2024/02/07 09:59:58;;;;;;;;;;;;;;;12.00;58.58;98410.05;108344;1251;61116;-68
2024/02/07 10:02:25;;;;;;;;;;;;;;;11.98;58.08;98403.46;108311;1254;74063;-70
2024/02/07 10:04:52;;;;;;;;;;;;;;;11.97;58.09;98395.53;108169;1254;73846;-69
2024/02/07 10:07:19;;;;;;;;;;;;;;;12.01;58.60;98388.00;108191;1259;73551;-73
2024/02/07 10:09:49;;;;;;;;;;;;;;;12.07;58.50;98380.48;108318;1256;61061;-72
2024/02/07 10:12:17;;;;;;;;;;;;;;;12.08;58.47;98371.00;108190;1254;61129;-69
2024/02/07 10:14:44;;;;;;;;;;;;;;;12.10;58.12;98378.25;108239;1254;75057;-69
2024/02/07 10:17:11;;;;;;;;;;;;;;;12.03;57.60;98369.40;108364;1252;74101;-72
2024/02/07 10:19:38;;;;;;;;;;;;;;;11.99;57.84;98377.05;108328;1254;73792;-71
2024/02/07 10:22:15;;;;;;;;;;;;;;;11.94;57.96;98376.77;108324;1254;61232;-71
2024/02/07 10:24:45;;;;;;;;;;;;;;;11.83;57.97;98382.55;108456;1252;61083;-69
2024/02/07 10:27:18;;;;;;;;;;;;;;;11.73;58.36;98392.82;108302;1253;72934;-69
2024/02/07 10:29:46;;;;;;;;;;;;;;;11.64;58.85;98377.61;108241;1251;74188;-70
2024/02/07 10:32:18;;;;;;;;;;;;;;;11.55;59.03;98393.49;108354;1255;73508;-69
2024/02/07 10:34:49;;;;;;;;;;;;;;;11.47;59.09;98384.48;108358;1254;61267;-69
2024/02/07 10:37:21;;;;;;;;;;;;;;;11.39;59.20;98398.79;108271;1251;60016;-70
2024/02/07 10:39:50;;;;;;;;;;;;;;;11.38;59.77;98397.27;108404;1256;73523;-69
2024/02/07 10:42:17;;;;;;;;;;;;;;;11.36;60.13;98398.48;108149;1254;72637;-70
2024/02/07 10:44:44;;;;;;;;;;;;;;;11.34;60.29;98387.09;108302;1254;72016;-71
2024/02/07 10:47:11;;;;;;;;;;;;;;;11.34;60.44;98377.89;108281;1252;61434;-70
2024/02/07 10:49:39;;;;;;;;;;;;;;;11.37;60.56;98387.31;108335;1254;61221;-71
2024/02/07 10:52:10;;;;;;;;;;;;;;;11.36;60.05;98394.84;108297;1254;73366;-71
2024/02/07 10:54:38;;;;;;;;;;;;;;;11.36;59.96;98394.58;108323;1254;71671;-71
2024/02/07 10:57:05;;;;;;;;;;;;;;;11.34;59.81;98392.81;108203;1254;72729;-71
2024/02/07 10:59:32;;;;;;;;;;;;;;;11.37;59.82;98387.75;108298;1254;61047;-74
2024/02/07 11:02:02;;;;;;;;;;;;;;;11.39;59.72;98393.88;108426;1254;61213;-72
2024/02/07 11:04:29;;;;;;;;;;;;;;;11.40;59.53;98394.17;108386;1254;74724;-71
2024/02/07 11:06:57;;;;;;;;;;;;;;;11.39;59.47;98387.85;108249;1254;71742;-72
2024/02/07 11:09:24;;;;;;;;;;;;;;;11.37;59.33;98384.02;108226;1257;73248;-69
2024/02/07 11:11:51;;;;;;;;;;;;;;;11.33;59.20;98387.42;108266;1251;61482;-70
2024/02/07 11:14:18;;;;;;;;;;;;;;;11.31;59.45;98375.80;108173;1254;59467;-71
2024/02/07 11:16:45;;;;;;;;;;;;;;;11.32;59.51;98385.61;108215;1254;74976;-69
2024/02/07 11:19:12;;;;;;;;;;;;;;;11.35;59.41;98381.02;108307;1254;72499;-72
2024/02/07 11:21:39;;;;;;;;;;;;;;;11.40;59.43;98380.55;108426;1254;72372;-70
2024/02/07 11:24:06;;;;;;;;;;;;;;;11.43;59.19;98375.42;108294;1252;61218;-71
2024/02/07 11:26:33;;;;;;;;;;;;;;;11.47;59.12;98369.04;108413;1251;61193;-70
2024/02/07 11:29:01;;;;;;;;;;;;;;;11.48;58.95;98377.94;108253;1251;74370;-71
2024/02/07 11:31:32;;;;;;;;;;;;;;;11.51;58.95;98375.23;108499;1254;74094;-72
2024/02/07 11:33:59;;;;;;;;;;;;;;;11.50;58.89;98374.75;108181;1254;72727;-71
2024/02/07 11:36:26;;;;;;;;;;;;;;;11.48;58.77;98381.40;108238;1254;61124;-71
2024/02/07 11:38:53;;;;;;;;;;;;;;;11.48;59.11;98371.77;108424;1255;59432;-70
2024/02/07 11:41:20;;;;;;;;;;;;;;;11.48;59.04;98367.30;108324;1255;73487;-70
2024/02/07 11:43:53;;;;;;;;;;;;;;;11.48;59.08;98368.32;108296;1252;71609;-71
2024/02/07 11:46:22;;;;;;;;;;;;;;;11.48;59.02;98367.77;108222;1254;72375;-70
2024/02/07 11:48:51;;;;;;;;;;;;;;;11.47;59.27;98371.42;108259;1255;61182;-71
2024/02/07 11:51:20;;;;;;;;;;;;;;;11.45;59.23;98368.51;108313;1254;60317;-70
2024/02/07 11:53:47;;;;;;;;;;;;;;;11.45;59.41;98367.56;108404;1256;74924;-74
2024/02/07 11:56:18;;;;;;;;;;;;;;;11.42;59.24;98363.42;108339;1254;71260;-73
2024/02/07 11:58:46;;;;;;;;;;;;;;;11.41;59.32;98355.92;108330;1254;71581;-69
2024/02/07 12:01:13;;;;;;;;;;;;;;;11.42;59.36;98367.49;108370;1253;61125;-71
2024/02/07 12:03:40;;;;;;;;;;;;;;;11.40;59.43;98354.29;108420;1254;61196;-70
2024/02/07 12:06:11;;;;;;;;;;;;;;;11.39;59.46;98356.37;108302;1252;75734;-69
2024/02/07 12:08:38;;;;;;;;;;;;;;;11.35;59.39;98361.46;108407;1254;71609;-71
2024/02/07 12:11:05;;;;;;;;;;;;;;;11.33;59.48;98356.07;108339;1254;72919;-70
2024/02/07 12:13:37;;;;;;;;;;;;;;;11.35;59.62;98347.19;108331;1255;61112;-73
2024/02/07 12:16:05;;;;;;;;;;;;;;;11.34;59.53;98356.31;108351;1254;61321;-72
2024/02/07 12:18:32;;;;;;;;;;;;;;;11.34;59.61;98348.33;108357;1254;75692;-70
2024/02/07 12:21:02;;;;;;;;;;;;;;;11.35;59.61;98351.15;108297;1254;71824;-69
2024/02/07 12:23:30;;;;;;;;;;;;;;;11.36;59.62;98352.91;108339;1255;73761;-69
2024/02/07 12:25:57;;;;;;;;;;;;;;;11.36;59.42;98350.05;108288;1253;61191;-71
2024/02/07 12:28:25;;;;;;;;;;;;;;;11.36;59.46;98345.48;108270;1252;62767;-70
2024/02/07 12:30:55;;;;;;;;;;;;;;;11.36;59.55;98347.25;108358;1254;76109;-68
2024/02/07 12:33:22;;;;;;;;;;;;;;;11.35;59.55;98339.17;108277;1254;73713;-70
2024/02/07 12:35:50;;;;;;;;;;;;;;;11.33;59.48;98332.98;108296;1256;73799;-70
2024/02/07 12:38:18;;;;;;;;;;;;;;;11.36;59.59;98337.70;108383;1254;61342;-72
2024/02/07 12:40:46;;;;;;;;;;;;;;;11.38;59.38;98336.34;108350;1254;61266;-70
2024/02/07 12:43:13;;;;;;;;;;;;;;;11.40;59.19;98333.29;108341;1253;75750;-72
2024/02/07 12:45:40;;;;;;;;;;;;;;;11.44;59.02;98337.38;108372;1256;71560;-72
2024/02/07 12:48:07;;;;;;;;;;;;;;;11.49;58.82;98344.00;108273;1254;72559;-71
2024/02/07 12:50:34;;;;;;;;;;;;;;;11.54;58.71;98346.69;108326;1253;61259;-69
2024/02/07 12:53:01;;;;;;;;;;;;;;;11.56;58.60;98343.50;108379;1255;61304;-71
2024/02/07 12:55:28;;;;;;;;;;;;;;;11.56;58.48;98341.23;108263;1253;73493;-71
2024/02/07 12:58:05;;;;;;;;;;;;;;;11.56;58.28;98334.55;108304;1254;71938;-71
2024/02/07 13:00:32;;;;;;;;;;;;;;;11.54;58.13;98340.53;108341;1254;72597;-71
2024/02/07 13:02:59;;;;;;;;;;;;;;;11.55;58.19;98345.91;108310;1257;60366;-71
2024/02/07 13:05:25;;;;;;;;;;;;;;;11.53;58.02;98344.59;108264;1254;61100;-72
2024/02/07 13:07:53;;;;;;;;;;;;;;;11.50;58.06;98345.04;108307;1252;72628;-71
2024/02/07 13:10:20;;;;;;;;;;;;;;;11.47;58.09;98348.48;108310;1254;72812;-68
2024/02/07 13:12:47;;;;;;;;;;;;;;;11.46;58.01;98341.58;108340;1251;72470;-69
2024/02/07 13:15:17;;;;;;;;;;;;;;;11.45;58.17;98350.98;108326;1253;61265;-68
2024/02/07 13:17:44;;;;;;;;;;;;;;;11.41;58.21;98336.90;108368;1253;61161;-68
2024/02/07 13:20:12;;;;;;;;;;;;;;;11.40;58.35;98339.77;108369;1253;75129;-70
2024/02/07 13:22:39;;;;;;;;;;;;;;;11.37;58.65;98344.92;108375;1254;70302;-67
2024/02/07 13:25:10;;;;;;;;;;;;;;;11.32;58.83;98340.13;108323;1253;72635;-69
2024/02/07 13:27:37;;;;;;;;;;;;;;;11.28;59.02;98346.27;108329;1254;61218;-70
2024/02/07 13:30:05;;;;;;;;;;;;;;;11.27;59.32;98342.04;108295;1251;61234;-71
2024/02/07 13:32:33;;;;;;;;;;;;;;;11.27;59.48;98348.70;108369;1253;74427;-69
2024/02/07 13:35:00;;;;;;;;;;;;;;;11.25;59.64;98340.87;108495;1254;71594;-70
2024/02/07 13:37:27;;;;;;;;;;;;;;;11.24;59.80;98340.03;108272;1253;72560;-71
2024/02/07 13:39:55;;;;;;;;;;;;;;;11.21;59.86;98342.09;108362;1254;61221;-69
2024/02/07 13:42:22;;;;;;;;;;;;;;;11.21;59.88;98336.81;108328;1253;60696;-69
2024/02/07 13:44:50;;;;;;;;;;;;;;;11.23;60.05;98339.13;108364;1254;74490;-67
2024/02/07 13:47:17;;;;;;;;;;;;;;;11.22;59.99;98338.86;108345;1255;70542;-71